Hai Yang Shi You 708 — BFDL — position and weather

sailwx.info

Track history (hours):
 
Tides and Currents Weather Stations Pressure Air Temp Water Temp Dewpoint Dewpoint Depression Visibility Wind Speed Wind Dir Waves Ship Positions

Hai Yang Shi You 708

Last reported at 2018-Jan-05 18:07 UTC. Time now 2018-Feb-18 22:17 UTC.
Position N 21°03' E 110°52'.
Warning: this ship's position is 44 days out of date.

Length 105 m; draft 7 m.

Type: Other ship. MMSI: 413303010.

Date/timePositionNaut miles runAvg speedWind from/ knotsBaromVisibWave heightAir tempDewpointWater temp
2018-Jan-05 18:07N 21°03' E 110°52'1 9.6
2018-Jan-05 17:59N 21°03' E 110°51'5 9.4
2018-Jan-05 17:26N 21°02' E 110°46'4 9.8
2018-Jan-05 17:00N 21°03' E 110°41'5 9.6
2018-Jan-05 16:30N 21°03' E 110°36'4 8.7
2018-Jan-05 16:00N 21°05' E 110°32'4 8.4
2018-Jan-05 15:30N 21°05' E 110°27'4 8.9
2018-Jan-05 15:00N 21°09' E 110°25'4 7.7
2018-Jan-05 14:30N 21°13' E 110°26'2 3.7
2018-Jan-05 14:00N 21°15' E 110°26'0 0.0
2018-Jan-05 13:30N 21°15' E 110°26'0 0.0
2018-Jan-05 13:00N 21°15' E 110°26'0 0.0
2018-Jan-05 12:30N 21°15' E 110°26'0 0.0
2018-Jan-05 12:00N 21°15' E 110°26'0 0.1
2018-Jan-05 11:30N 21°15' E 110°26'0 0.0
2018-Jan-05 11:00N 21°15' E 110°26'0 0.1
2018-Jan-05 10:30N 21°15' E 110°26'0 0.0
2018-Jan-05 10:00N 21°15' E 110°26'0 0.1
2018-Jan-05 09:30N 21°15' E 110°26'0 0.0
2018-Jan-05 09:00N 21°15' E 110°26'0 0.0
2018-Jan-05 08:30N 21°15' E 110°26'0 0.0
2018-Jan-05 08:00N 21°15' E 110°26'0 0.0
2018-Jan-05 07:30N 21°15' E 110°26'0 0.1
2018-Jan-05 07:00N 21°15' E 110°26'0 0.0
2018-Jan-05 06:30N 21°15' E 110°26'0 0.0
2018-Jan-05 06:00N 21°15' E 110°26'0 0.0
2018-Jan-05 05:30N 21°15' E 110°26'0 0.0
2018-Jan-05 05:00N 21°15' E 110°26'0 0.0
2018-Jan-05 04:21N 21°15' E 110°26'0 0.0
2018-Jan-05 04:00N 21°15' E 110°26'0 0.0
2018-Jan-05 03:30N 21°15' E 110°26'0 0.0
2018-Jan-05 03:00N 21°15' E 110°26'0 0.0
2018-Jan-05 02:27N 21°15' E 110°26'0 0.0
2018-Jan-05 02:00N 21°15' E 110°26'0 0.0
2018-Jan-05 01:30N 21°15' E 110°26'0 0.1
2018-Jan-05 01:00N 21°15' E 110°26'0 0.0
2018-Jan-05 00:30N 21°15' E 110°26'0 0.0
2018-Jan-05 00:00N 21°15' E 110°26'0 0.0
2018-Jan-04 23:27N 21°15' E 110°26'0 0.0
2018-Jan-04 23:00N 21°15' E 110°26'0 0.0
2018-Jan-04 22:30N 21°15' E 110°26'0 0.0
2018-Jan-04 22:00N 21°15' E 110°26'0 0.0
2018-Jan-04 21:30N 21°15' E 110°26'0 0.0
2018-Jan-04 20:54N 21°15' E 110°26'0 0.0
2018-Jan-04 20:30N 21°15' E 110°26'0 0.0
2018-Jan-04 20:00N 21°15' E 110°26'0 0.0
2018-Jan-04 19:30N 21°15' E 110°26'0 0.0
2018-Jan-04 18:57N 21°15' E 110°26'0 0.0
2018-Jan-04 18:30N 21°15' E 110°26'0 0.1
2018-Jan-04 18:00N 21°15' E 110°26'0 0.1
2018-Jan-04 17:30N 21°15' E 110°26'0 0.0
2018-Jan-04 17:00N 21°15' E 110°26'0 0.0
2018-Jan-04 16:30N 21°15' E 110°26'0 0.0
2018-Jan-04 15:57N 21°15' E 110°26'0 0.0
2018-Jan-04 15:30N 21°15' E 110°26'0 0.0
2018-Jan-04 15:00N 21°15' E 110°26'0 0.0
2018-Jan-04 14:27N 21°15' E 110°26'0 0.0
2018-Jan-04 14:00N 21°15' E 110°26'0 0.0
2018-Jan-04 13:30N 21°15' E 110°26'0 0.0
2018-Jan-04 13:00N 21°15' E 110°26'0 0.0
2018-Jan-04 12:30N 21°15' E 110°26'0 0.0
2018-Jan-04 12:00N 21°15' E 110°26'0 0.0
2018-Jan-04 11:30N 21°15' E 110°26'0 0.0
2018-Jan-04 11:00N 21°15' E 110°26'0 0.0
2018-Jan-04 10:30N 21°15' E 110°26'0 0.0
2018-Jan-04 09:57N 21°15' E 110°26'0 0.0
2018-Jan-04 09:30N 21°15' E 110°26'0 0.0
2018-Jan-04 09:00N 21°15' E 110°26'0 0.0
2018-Jan-04 08:30N 21°15' E 110°26'0 0.1
2018-Jan-04 07:54N 21°15' E 110°26'0 0.0
2018-Jan-04 07:30N 21°15' E 110°26'0 0.0
2018-Jan-04 07:00N 21°15' E 110°26'0 0.1
2018-Jan-04 06:30N 21°15' E 110°26'0 0.0
2018-Jan-04 06:00N 21°15' E 110°26'0 0.0
2018-Jan-04 05:30N 21°15' E 110°26'0 0.0
2018-Jan-04 05:00N 21°15' E 110°26'0 0.0
2018-Jan-04 04:30N 21°15' E 110°26'0 0.0
2018-Jan-04 04:00N 21°15' E 110°26'0 0.0
2018-Jan-04 03:27N 21°15' E 110°26'0 0.0
2018-Jan-04 03:00N 21°15' E 110°26'0 0.0
2018-Jan-04 02:30N 21°15' E 110°26'0 0.0
2018-Jan-04 02:00N 21°15' E 110°26'0 0.0
2018-Jan-04 01:30N 21°15' E 110°26'0 0.0
2018-Jan-04 01:00N 21°15' E 110°26'0 0.0
2018-Jan-04 00:30N 21°15' E 110°26'0 0.0
2018-Jan-04 00:00N 21°15' E 110°26'0 0.0
2018-Jan-03 23:27N 21°15' E 110°26'0 0.1
2018-Jan-03 23:00N 21°15' E 110°26'0 0.1
2018-Jan-03 22:30N 21°15' E 110°26'0 0.0
2018-Jan-03 22:00N 21°15' E 110°26'0 0.0
2018-Jan-03 21:30N 21°15' E 110°26'0 0.0
2018-Jan-03 21:00N 21°15' E 110°26'0 0.0
2018-Jan-03 20:30N 21°15' E 110°26'0 0.0
2018-Jan-03 20:00N 21°15' E 110°26'0 0.0
2018-Jan-03 19:30N 21°15' E 110°26'0 0.0
2018-Jan-03 19:00N 21°15' E 110°26'0 0.0
2018-Jan-03 18:30N 21°15' E 110°26'0 0.0
2018-Jan-03 18:00N 21°15' E 110°26'0 0.0
2018-Jan-03 17:30N 21°15' E 110°26'0 0.1
2018-Jan-03 17:00N 21°15' E 110°26'0 0.0
2018-Jan-03 16:27N 21°15' E 110°26'0 0.0
2018-Jan-03 15:57N 21°15' E 110°26'0 0.0
2018-Jan-03 15:18N 21°15' E 110°26'0 0.0
2018-Jan-03 14:57N 21°15' E 110°26'0 0.0
2018-Jan-03 14:30N 21°15' E 110°26'0 0.0
2018-Jan-03 14:00N 21°15' E 110°26'0 0.0
2018-Jan-03 13:30N 21°15' E 110°26'0 0.0
2018-Jan-03 13:00N 21°15' E 110°26'0 0.0
2018-Jan-03 12:30N 21°15' E 110°26'0 0.0
2018-Jan-03 11:54N 21°15' E 110°26'0 0.0
2018-Jan-03 11:30N 21°15' E 110°26'0 0.0
2018-Jan-03 11:00N 21°15' E 110°26'0 0.0
2018-Jan-03 10:30N 21°15' E 110°26'0 0.0
2018-Jan-03 10:00N 21°15' E 110°26'0 0.0
2018-Jan-03 09:30N 21°15' E 110°26'0 0.0
2018-Jan-03 09:00N 21°15' E 110°26'0 0.0
2018-Jan-03 08:18N 21°15' E 110°26'0 0.0
2018-Jan-03 08:00N 21°15' E 110°26'0 0.1
2018-Jan-03 07:24N 21°15' E 110°26'0 0.0
2018-Jan-03 07:00N 21°15' E 110°26'0 0.0
2018-Jan-03 06:30N 21°15' E 110°26'0 0.1
2018-Jan-03 06:00N 21°15' E 110°26'0 0.1
2018-Jan-03 05:27N 21°15' E 110°26'0 0.0
2018-Jan-03 04:57N 21°15' E 110°26'0 0.0
2018-Jan-03 04:24N 21°15' E 110°26'0 0.0
2018-Jan-03 04:00N 21°15' E 110°26'0 0.0
2018-Jan-03 03:27N 21°15' E 110°26'0 0.0
2018-Jan-03 03:00N 21°15' E 110°26'0 0.0
2018-Jan-03 02:30N 21°15' E 110°26'0 0.0
2018-Jan-03 02:00N 21°15' E 110°26'0 0.0
2018-Jan-03 01:30N 21°15' E 110°26'0 0.1
2018-Jan-03 01:00N 21°15' E 110°26'0 0.1
2018-Jan-03 00:30N 21°15' E 110°26'0 0.1
2018-Jan-03 00:00N 21°15' E 110°26'0 0.0
2018-Jan-02 23:30N 21°15' E 110°26'0 0.1
2018-Jan-02 22:57N 21°15' E 110°26'0 0.0
2018-Jan-02 22:30N 21°15' E 110°26'0 0.0
2018-Jan-02 21:51N 21°15' E 110°26'0 0.0
2018-Jan-02 21:21N 21°15' E 110°26'0 0.0
2018-Jan-02 21:00N 21°15' E 110°26'0 0.0
2018-Jan-02 20:30N 21°15' E 110°26'0 0.0
2018-Jan-02 20:00N 21°15' E 110°26'0 0.0
2018-Jan-02 19:30N 21°15' E 110°26'0 0.0
2018-Jan-02 18:54N 21°15' E 110°26'0 0.0
2018-Jan-02 18:30N 21°15' E 110°26'0 0.0
2018-Jan-02 18:00N 21°15' E 110°26'0 0.0
2018-Jan-02 17:30N 21°15' E 110°26'0 0.0
2018-Jan-02 17:00N 21°15' E 110°26'0 0.0
2018-Jan-02 16:27N 21°15' E 110°26'0 0.1
2018-Jan-02 16:00N 21°15' E 110°26'0 0.1
2018-Jan-02 15:30N 21°15' E 110°26'0 0.0
2018-Jan-02 14:54N 21°15' E 110°26'0 0.0
2018-Jan-02 14:30N 21°15' E 110°26'0 0.0
2018-Jan-02 14:00N 21°15' E 110°26'0 0.0
2018-Jan-02 13:30N 21°15' E 110°26'0 0.0
2018-Jan-02 12:57N 21°15' E 110°26'0 0.3
2018-Jan-02 12:30N 21°15' E 110°26'0 0.2
2018-Jan-02 12:00N 21°15' E 110°26'0 0.0
2018-Jan-02 11:30N 21°15' E 110°26'0 0.0
2018-Jan-02 10:57N 21°15' E 110°26'0 0.0
2018-Jan-02 10:30N 21°15' E 110°26'0 0.0
2018-Jan-02 09:57N 21°15' E 110°26'0 0.0
2018-Jan-02 09:27N 21°15' E 110°26'0 0.0
2018-Jan-02 08:27N 21°15' E 110°26'0 0.1
2018-Jan-02 07:59N 21°15' E 110°26'0 0.3
2018-Jan-02 07:30N 21°15' E 110°26'0 0.1
2018-Jan-02 07:00N 21°15' E 110°26'0 0.0
2018-Jan-02 06:30N 21°15' E 110°26'0 0.0
2018-Jan-02 05:57N 21°15' E 110°26'0 0.0
2018-Jan-02 05:30N 21°15' E 110°26'0 0.1
2018-Jan-02 04:30N 21°15' E 110°26'0 0.0
2018-Jan-02 04:00N 21°15' E 110°26'0 0.0
2018-Jan-02 03:30N 21°15' E 110°26'0 0.0
2018-Jan-02 03:00N 21°15' E 110°26'0 0.1
2018-Jan-02 02:24N 21°15' E 110°26'0 0.1
2018-Jan-02 01:57N 21°15' E 110°26'0 0.0
2018-Jan-02 01:30N 21°15' E 110°26'0 0.0
2018-Jan-02 01:00N 21°15' E 110°26'0 0.0
2018-Jan-02 00:30N 21°15' E 110°26'0 0.0
2018-Jan-01 23:57N 21°15' E 110°26'0 0.0
2018-Jan-01 23:27N 21°15' E 110°26'0 0.0
2018-Jan-01 23:00N 21°15' E 110°26'0 0.1
2018-Jan-01 22:30N 21°15' E 110°26'0 0.0
2018-Jan-01 22:00N 21°15' E 110°26'0 0.0
2018-Jan-01 21:30N 21°15' E 110°26'0 0.0
2018-Jan-01 21:00N 21°15' E 110°26'0 0.0
2018-Jan-01 20:30N 21°15' E 110°26'0 0.0
2018-Jan-01 20:00N 21°15' E 110°26'0 0.0
2018-Jan-01 19:30N 21°15' E 110°26'0 0.0
2018-Jan-01 19:00N 21°15' E 110°26'0 0.0
2018-Jan-01 18:30N 21°15' E 110°26'0 0.0
2018-Jan-01 18:00N 21°15' E 110°26'0 0.0
2018-Jan-01 17:30N 21°15' E 110°26'0 0.0
2018-Jan-01 15:00N 21°15' E 110°26'0 0.0
2018-Jan-01 14:30N 21°15' E 110°26'0 0.0
2018-Jan-01 13:57N 21°15' E 110°26'0 0.0
2018-Jan-01 13:27N 21°15' E 110°26'0 0.0
2018-Jan-01 13:00N 21°15' E 110°26'0 0.0
2018-Jan-01 11:57N 21°15' E 110°26'0 0.1
2018-Jan-01 11:30N 21°15' E 110°26'0 0.1
2018-Jan-01 11:00N 21°15' E 110°26'0 0.0
2018-Jan-01 10:30N 21°15' E 110°26'0 0.0
2018-Jan-01 09:57N 21°15' E 110°26'0 0.0
2018-Jan-01 09:30N 21°15' E 110°26'0 0.0
2018-Jan-01 08:24N 21°15' E 110°26'0 0.0
2018-Jan-01 08:00N 21°15' E 110°26'0 0.0
2018-Jan-01 07:24N 21°15' E 110°26'0 0.1
2018-Jan-01 07:00N 21°15' E 110°26'0 0.1
2018-Jan-01 05:54N 21°15' E 110°26'0 0.0
2018-Jan-01 05:30N 21°15' E 110°26'0 0.0
2018-Jan-01 04:57N 21°15' E 110°26'0 0.1
2018-Jan-01 03:57N 21°15' E 110°26'0 0.0
2018-Jan-01 03:30N 21°15' E 110°26'0 0.0
2018-Jan-01 03:00N 21°15' E 110°26'0 0.0
2018-Jan-01 02:27N 21°15' E 110°26'0 0.0
2018-Jan-01 02:00N 21°15' E 110°26'0 0.0
2018-Jan-01 01:30N 21°15' E 110°26'0 0.1
2018-Jan-01 00:30N 21°15' E 110°26'0 0.0
2017-Dec-31 21:00N 21°15' E 110°26'0 0.0
2017-Dec-31 20:27N 21°15' E 110°26'0 0.0
2017-Dec-31 20:00N 21°15' E 110°26'0 0.0
2017-Dec-31 19:30N 21°15' E 110°26'0 0.0
2017-Dec-31 19:00N 21°15' E 110°26'0 0.0
2017-Dec-31 18:27N 21°15' E 110°26'0 0.0
2017-Dec-31 17:57N 21°15' E 110°26'0 0.0
2017-Dec-31 17:27N 21°15' E 110°26'0 0.0
2017-Dec-31 16:54N 21°15' E 110°26'0 0.0
2017-Dec-31 16:27N 21°15' E 110°26'0 0.0
2017-Dec-31 16:00N 21°15' E 110°26'0 0.0
2017-Dec-31 15:27N 21°15' E 110°26'0 0.0
2017-Dec-31 15:00N 21°15' E 110°26'0 0.1
2017-Dec-31 14:27N 21°15' E 110°26'0 0.0
2017-Dec-31 14:00N 21°15' E 110°26'0 0.0
2017-Dec-31 13:27N 21°15' E 110°26'0 0.0
2017-Dec-31 13:00N 21°15' E 110°26'0 0.0
2017-Dec-31 12:30N 21°15' E 110°26'0 0.0
2017-Dec-31 12:00N 21°15' E 110°26'0 0.0
2017-Dec-31 11:30N 21°15' E 110°26'0 0.0
2017-Dec-31 11:00N 21°15' E 110°26'0 0.0
2017-Dec-31 10:30N 21°15' E 110°26'0 0.0
2017-Dec-31 10:00N 21°15' E 110°26'0 0.0
2017-Dec-31 09:30N 21°15' E 110°26'0 0.0
2017-Dec-31 09:00N 21°15' E 110°26'0 0.0
2017-Dec-31 08:30N 21°15' E 110°26'0 0.0
2017-Dec-31 08:00N 21°15' E 110°26'0 0.1
2017-Dec-31 07:30N 21°15' E 110°26'0 0.0
2017-Dec-31 06:57N 21°15' E 110°26'0 0.0
2017-Dec-31 06:24N 21°15' E 110°26'0 0.0
2017-Dec-31 05:57N 21°15' E 110°26'0 0.0
2017-Dec-31 05:27N 21°15' E 110°26'0 0.0
2017-Dec-31 05:00N 21°15' E 110°26'0 0.0
2017-Dec-31 04:30N 21°15' E 110°26'0 0.0
2017-Dec-31 04:00N 21°15' E 110°26'0 0.0
2017-Dec-31 03:30N 21°15' E 110°26'0 0.0
2017-Dec-31 03:00N 21°15' E 110°26'0 0.0
2017-Dec-31 02:30N 21°15' E 110°26'0 0.0
2017-Dec-31 02:00N 21°15' E 110°26'0 0.1
2017-Dec-31 01:21N 21°15' E 110°26'0 0.2
2017-Dec-31 01:00N 21°15' E 110°26'0 0.1
2017-Dec-31 00:30N 21°15' E 110°26'0 0.0
2017-Dec-30 23:54N 21°15' E 110°26'0 0.0
2017-Dec-30 23:24N 21°15' E 110°26'0 0.0
2017-Dec-30 23:00N 21°15' E 110°26'0 0.0
2017-Dec-30 22:21N 21°15' E 110°26'0 0.2
2017-Dec-30 22:00N 21°15' E 110°26'0 0.0
2017-Dec-30 21:30N 21°15' E 110°26'0 0.0
2017-Dec-30 20:57N 21°15' E 110°26'0 0.0
2017-Dec-30 20:30N 21°15' E 110°26'0 0.0
2017-Dec-30 19:57N 21°15' E 110°26'0 0.0
2017-Dec-30 19:27N 21°15' E 110°26'0 0.0
2017-Dec-30 19:00N 21°15' E 110°26'0 0.0
2017-Dec-30 18:30N 21°15' E 110°26'0 0.0
2017-Dec-30 17:57N 21°15' E 110°26'0 0.0
2017-Dec-30 17:30N 21°15' E 110°26'0 0.0
2017-Dec-30 17:00N 21°15' E 110°26'0 0.0
2017-Dec-30 16:30N 21°15' E 110°26'0 0.0
2017-Dec-30 16:00N 21°15' E 110°26'0 0.0
2017-Dec-30 15:30N 21°15' E 110°26'0 0.0
2017-Dec-30 15:00N 21°15' E 110°26'0 0.0
2017-Dec-30 14:30N 21°15' E 110°26'0 0.0
2017-Dec-30 13:57N 21°15' E 110°26'0 0.0
2017-Dec-30 13:30N 21°15' E 110°26'0 0.0
2017-Dec-30 13:00N 21°15' E 110°26'0 0.1
2017-Dec-30 12:30N 21°15' E 110°26'0 0.1
2017-Dec-30 11:54N 21°15' E 110°26'0 0.0
2017-Dec-30 11:30N 21°15' E 110°26'0 0.0
2017-Dec-30 11:00N 21°15' E 110°26'0 0.0
2017-Dec-30 10:30N 21°15' E 110°26'0 0.0
2017-Dec-30 10:00N 21°15' E 110°26'0 0.1
2017-Dec-30 09:30N 21°15' E 110°26'0 0.1
2017-Dec-30 09:00N 21°15' E 110°26'0 0.0
2017-Dec-30 08:30N 21°15' E 110°26'0 0.1
2017-Dec-30 08:00N 21°15' E 110°26'0 0.1
2017-Dec-30 07:24N 21°15' E 110°26'0 0.0
2017-Dec-30 07:00N 21°15' E 110°26'0 0.0
2017-Dec-30 06:30N 21°15' E 110°26'0 0.1
2017-Dec-30 05:54N 21°15' E 110°26'0 0.0
2017-Dec-30 05:30N 21°15' E 110°26'0 0.0
2017-Dec-30 05:00N 21°15' E 110°26'0 0.0
2017-Dec-30 04:30N 21°15' E 110°26'0 0.0
2017-Dec-30 04:00N 21°15' E 110°26'0 0.0
2017-Dec-30 03:15N 21°15' E 110°26'0 0.0
2017-Dec-30 02:57N 21°15' E 110°26'0 0.0
2017-Dec-30 02:27N 21°15' E 110°26'0 0.0
2017-Dec-30 02:00N 21°15' E 110°26'0 0.1
2017-Dec-30 01:21N 21°15' E 110°26'0 0.0
2017-Dec-30 00:57N 21°15' E 110°26'0 0.0
2017-Dec-30 00:30N 21°15' E 110°26'0 0.1
2017-Dec-30 00:00N 21°15' E 110°26'0 0.1
2017-Dec-29 23:30N 21°15' E 110°26'0 0.0
2017-Dec-29 23:00N 21°15' E 110°26'0 0.0
2017-Dec-29 22:27N 21°15' E 110°26'0 0.0
2017-Dec-29 22:00N 21°15' E 110°26'0 0.0
2017-Dec-29 21:27N 21°15' E 110°26'0 0.0
2017-Dec-29 20:57N 21°15' E 110°26'0 0.0
2017-Dec-29 20:27N 21°15' E 110°26'0 0.0
2017-Dec-29 20:00N 21°15' E 110°26'0 0.0
2017-Dec-29 19:30N 21°15' E 110°26'0 0.1
2017-Dec-29 18:57N 21°15' E 110°26'0 0.0
2017-Dec-29 18:30N 21°15' E 110°26'0 0.0
2017-Dec-29 17:57N 21°15' E 110°26'0 0.0
2017-Dec-29 17:30N 21°15' E 110°26'0 0.0
2017-Dec-29 17:00N 21°15' E 110°26'0 0.0
2017-Dec-29 16:30N 21°15' E 110°26'0 0.0
2017-Dec-29 16:00N 21°15' E 110°26'0 0.0
2017-Dec-29 15:27N 21°15' E 110°26'0 0.0
2017-Dec-29 15:00N 21°15' E 110°26'0 0.0
2017-Dec-29 14:30N 21°15' E 110°26'0 0.0
2017-Dec-29 14:00N 21°15' E 110°26'0 0.0
2017-Dec-29 13:30N 21°15' E 110°26'0 0.1
2017-Dec-29 13:00N 21°15' E 110°26'0 0.1
2017-Dec-29 12:30N 21°15' E 110°26'0 0.0
2017-Dec-29 12:00N 21°15' E 110°26'0 0.1
2017-Dec-29 11:27N 21°15' E 110°26'0 0.0
2017-Dec-29 10:57N 21°15' E 110°26'0 0.0
2017-Dec-29 10:30N 21°15' E 110°26'0 0.1
2017-Dec-29 09:57N 21°15' E 110°26'0 0.0
2017-Dec-29 09:30N 21°15' E 110°26'0 0.0
2017-Dec-29 09:00N 21°15' E 110°26'0 0.0
2017-Dec-29 08:30N 21°15' E 110°26'0 0.0
2017-Dec-29 08:00N 21°15' E 110°26'0 0.1
2017-Dec-29 07:30N 21°15' E 110°26'0 0.1
2017-Dec-29 06:51N 21°15' E 110°26'0 0.0
2017-Dec-29 06:24N 21°15' E 110°26'0 0.0
2017-Dec-29 06:00N 21°15' E 110°26'0 0.0
2017-Dec-29 05:30N 21°15' E 110°26'0 0.1
2017-Dec-29 04:57N 21°15' E 110°26'0 0.1
2017-Dec-29 04:27N 21°15' E 110°26'0 0.0
2017-Dec-29 04:00N 21°15' E 110°26'0 0.0
2017-Dec-29 03:24N 21°15' E 110°26'0 0.0
2017-Dec-29 02:54N 21°15' E 110°26'0 0.0
2017-Dec-29 02:30N 21°15' E 110°26'0 0.0
2017-Dec-29 01:54N 21°15' E 110°26'0 0.0
2017-Dec-29 01:21N 21°15' E 110°26'0 0.0
2017-Dec-29 01:00N 21°15' E 110°26'0 0.0
2017-Dec-29 00:30N 21°15' E 110°26'0 0.0
2017-Dec-28 23:54N 21°15' E 110°26'0 0.0
2017-Dec-28 23:30N 21°15' E 110°26'0 0.0
2017-Dec-28 23:00N 21°15' E 110°26'0 0.0
2017-Dec-28 22:27N 21°15' E 110°26'0 0.0
2017-Dec-28 22:00N 21°15' E 110°26'0 0.1
2017-Dec-28 21:30N 21°15' E 110°26'0 0.0
2017-Dec-28 21:00N 21°15' E 110°26'0 0.0
2017-Dec-28 20:30N 21°15' E 110°26'0 0.0
2017-Dec-28 20:00N 21°15' E 110°26'0 0.1
2017-Dec-28 19:30N 21°15' E 110°26'0 0.0
2017-Dec-28 19:00N 21°15' E 110°26'0 0.0
2017-Dec-28 18:30N 21°15' E 110°26'0 0.0
2017-Dec-28 18:00N 21°15' E 110°26'0 0.0
2017-Dec-28 17:30N 21°15' E 110°26'0 0.0
2017-Dec-28 17:00N 21°15' E 110°26'0 0.0
2017-Dec-28 16:27N 21°15' E 110°26'0 0.0
2017-Dec-28 15:54N 21°15' E 110°26'0 0.0
2017-Dec-28 15:30N 21°15' E 110°26'0 0.0
2017-Dec-28 15:00N 21°15' E 110°26'0 0.0
2017-Dec-28 14:30N 21°15' E 110°26'0 0.0
2017-Dec-28 13:57N 21°15' E 110°26'0 0.0
2017-Dec-28 13:30N 21°15' E 110°26'0 0.0
2017-Dec-28 12:57N 21°15' E 110°26'0 0.0
2017-Dec-28 12:30N 21°15' E 110°26'0 0.0
2017-Dec-28 12:00N 21°15' E 110°26'0 0.1
2017-Dec-28 11:27N 21°15' E 110°26'0 0.0
2017-Dec-28 11:00N 21°15' E 110°26'0 0.0
2017-Dec-28 10:27N 21°15' E 110°26'0 0.1
2017-Dec-28 09:57N 21°15' E 110°26'0 0.1
2017-Dec-28 09:30N 21°15' E 110°26'0 0.0
2017-Dec-28 08:57N 21°15' E 110°26'0 0.0
2017-Dec-28 08:30N 21°15' E 110°26'0 0.0
2017-Dec-28 08:00N 21°15' E 110°26'0 0.0
2017-Dec-28 07:30N 21°15' E 110°26'0 0.0
2017-Dec-28 06:57N 21°15' E 110°26'0 0.1
2017-Dec-28 06:24N 21°15' E 110°26'0 0.1
2017-Dec-28 05:57N 21°15' E 110°26'0 0.0
2017-Dec-28 05:27N 21°15' E 110°26'0 0.0
2017-Dec-28 05:00N 21°15' E 110°26'0 0.0
2017-Dec-28 04:30N 21°15' E 110°26'0 0.0
2017-Dec-28 04:00N 21°15' E 110°26'0 0.0
2017-Dec-28 03:30N 21°15' E 110°26'0 0.0
2017-Dec-28 03:00N 21°15' E 110°26'0 0.0
2017-Dec-28 02:27N 21°15' E 110°26'0 0.0
2017-Dec-28 02:00N 21°15' E 110°26'0 0.0
2017-Dec-28 01:30N 21°15' E 110°26'0 0.0
2017-Dec-28 01:00N 21°15' E 110°26'0 0.0
2017-Dec-28 00:30N 21°15' E 110°26'0 0.0
2017-Dec-28 00:00N 21°15' E 110°26'0 0.0
2017-Dec-27 23:27N 21°15' E 110°26'0 0.0
2017-Dec-27 23:00N 21°15' E 110°26'0 0.0
2017-Dec-27 22:30N 21°15' E 110°26'0 0.0
2017-Dec-27 21:57N 21°15' E 110°26'0 0.0
2017-Dec-27 21:30N 21°15' E 110°26'0 0.1
2017-Dec-27 21:00N 21°15' E 110°26'0 0.0
2017-Dec-27 20:24N 21°15' E 110°26'0 0.0
2017-Dec-27 20:00N 21°15' E 110°26'0 0.0
2017-Dec-27 19:30N 21°15' E 110°26'0 0.0
2017-Dec-27 18:57N 21°15' E 110°26'0 0.1
2017-Dec-27 18:24N 21°15' E 110°26'0 0.0
2017-Dec-27 17:57N 21°15' E 110°26'0 0.0
2017-Dec-27 17:30N 21°15' E 110°26'0 0.0
2017-Dec-27 17:00N 21°15' E 110°26'0 0.0
2017-Dec-27 16:30N 21°15' E 110°26'0 0.0
2017-Dec-27 16:00N 21°15' E 110°26'0 0.0
2017-Dec-27 15:30N 21°15' E 110°26'0 0.0
2017-Dec-27 14:57N 21°15' E 110°26'0 0.1
2017-Dec-27 14:30N 21°15' E 110°26'0 0.0
2017-Dec-27 14:00N 21°15' E 110°26'0 0.0
2017-Dec-27 13:30N 21°15' E 110°26'0 0.0
2017-Dec-27 12:57N 21°15' E 110°26'0 0.0
2017-Dec-27 12:30N 21°15' E 110°26'0 0.0
2017-Dec-27 11:57N 21°15' E 110°26'0 0.0
2017-Dec-27 11:30N 21°15' E 110°26'0 0.1
2017-Dec-27 11:00N 21°15' E 110°26'0 0.1
2017-Dec-27 10:27N 21°15' E 110°26'0 0.0
2017-Dec-27 10:00N 21°15' E 110°26'0 0.0
2017-Dec-27 09:30N 21°15' E 110°26'0 0.1
2017-Dec-27 09:00N 21°15' E 110°26'0 0.1
2017-Dec-27 08:30N 21°15' E 110°26'0 0.0
2017-Dec-27 07:57N 21°15' E 110°26'0 0.0
2017-Dec-27 07:30N 21°15' E 110°26'0 0.0
2017-Dec-27 07:00N 21°15' E 110°26'0 0.0
2017-Dec-27 06:24N 21°15' E 110°26'0 0.0
2017-Dec-27 05:51N 21°15' E 110°26'0 0.0
2017-Dec-27 05:27N 21°15' E 110°26'0 0.0
2017-Dec-27 04:57N 21°15' E 110°26'0 0.0
2017-Dec-27 04:30N 21°15' E 110°26'0 0.0
2017-Dec-27 04:00N 21°15' E 110°26'0 0.0
2017-Dec-27 03:30N 21°15' E 110°26'0 0.0
2017-Dec-27 02:57N 21°15' E 110°26'0 0.0
2017-Dec-27 02:30N 21°15' E 110°26'0 0.1
2017-Dec-27 02:00N 21°15' E 110°26'0 0.0
2017-Dec-27 01:27N 21°15' E 110°26'0 0.0
2017-Dec-27 01:00N 21°15' E 110°26'0 0.0
2017-Dec-27 00:30N 21°15' E 110°26'0 0.0
2017-Dec-27 00:00N 21°15' E 110°26'0 0.0
2017-Dec-26 23:30N 21°15' E 110°26'0 0.0
2017-Dec-26 23:00N 21°15' E 110°26'0 0.0
2017-Dec-26 22:30N 21°15' E 110°26'0 0.0
2017-Dec-26 22:00N 21°15' E 110°26'0 0.0
2017-Dec-26 21:30N 21°15' E 110°26'0 0.1
2017-Dec-26 21:00N 21°15' E 110°26'0 0.0
2017-Dec-26 20:30N 21°15' E 110°26'0 0.0
2017-Dec-26 19:57N 21°15' E 110°26'0 0.0
2017-Dec-26 19:30N 21°15' E 110°26'0 0.0
2017-Dec-26 19:00N 21°15' E 110°26'0 0.0
2017-Dec-26 18:30N 21°15' E 110°26'  
Track history (hours):
 
Tides and Currents Weather Stations Pressure Air Temp Water Temp Dewpoint Dewpoint Depression Visibility Wind Speed Wind Dir Waves Ship Positions

Hai Yang Shi You 708

Last reported at 2018-Jan-05 18:07 UTC. Time now 2018-Feb-18 22:17 UTC.
Position N 21°03' E 110°52'.
Warning: this ship's position is 44 days out of date.

Length 105 m; draft 7 m.

Type: Other ship. MMSI: 413303010.

Date/timePositionNaut miles runAvg speedWind from/ knotsBaromVisibWave heightAir tempDewpointWater temp
2018-Jan-05 18:07N 21°03' E 110°52'1 9.6
2018-Jan-05 17:59N 21°03' E 110°51'5 9.4
2018-Jan-05 17:26N 21°02' E 110°46'4 9.8
2018-Jan-05 17:00N 21°03' E 110°41'5 9.6
2018-Jan-05 16:30N 21°03' E 110°36'4 8.7
2018-Jan-05 16:00N 21°05' E 110°32'4 8.4
2018-Jan-05 15:30N 21°05' E 110°27'4 8.9
2018-Jan-05 15:00N 21°09' E 110°25'4 7.7
2018-Jan-05 14:30N 21°13' E 110°26'2 3.7
2018-Jan-05 14:00N 21°15' E 110°26'0 0.0
2018-Jan-05 13:30N 21°15' E 110°26'0 0.0
2018-Jan-05 13:00N 21°15' E 110°26'0 0.0
2018-Jan-05 12:30N 21°15' E 110°26'0 0.0
2018-Jan-05 12:00N 21°15' E 110°26'0 0.1
2018-Jan-05 11:30N 21°15' E 110°26'0 0.0
2018-Jan-05 11:00N 21°15' E 110°26'0 0.1
2018-Jan-05 10:30N 21°15' E 110°26'0 0.0
2018-Jan-05 10:00N 21°15' E 110°26'0 0.1
2018-Jan-05 09:30N 21°15' E 110°26'0 0.0
2018-Jan-05 09:00N 21°15' E 110°26'0 0.0
2018-Jan-05 08:30N 21°15' E 110°26'0 0.0
2018-Jan-05 08:00N 21°15' E 110°26'0 0.0
2018-Jan-05 07:30N 21°15' E 110°26'0 0.1
2018-Jan-05 07:00N 21°15' E 110°26'0 0.0
2018-Jan-05 06:30N 21°15' E 110°26'0 0.0
2018-Jan-05 06:00N 21°15' E 110°26'0 0.0
2018-Jan-05 05:30N 21°15' E 110°26'0 0.0
2018-Jan-05 05:00N 21°15' E 110°26'0 0.0
2018-Jan-05 04:21N 21°15' E 110°26'0 0.0
2018-Jan-05 04:00N 21°15' E 110°26'0 0.0
2018-Jan-05 03:30N 21°15' E 110°26'0 0.0
2018-Jan-05 03:00N 21°15' E 110°26'0 0.0
2018-Jan-05 02:27N 21°15' E 110°26'0 0.0
2018-Jan-05 02:00N 21°15' E 110°26'0 0.0
2018-Jan-05 01:30N 21°15' E 110°26'0 0.1
2018-Jan-05 01:00N 21°15' E 110°26'0 0.0
2018-Jan-05 00:30N 21°15' E 110°26'0 0.0
2018-Jan-05 00:00N 21°15' E 110°26'0 0.0
2018-Jan-04 23:27N 21°15' E 110°26'0 0.0
2018-Jan-04 23:00N 21°15' E 110°26'0 0.0
2018-Jan-04 22:30N 21°15' E 110°26'0 0.0
2018-Jan-04 22:00N 21°15' E 110°26'0 0.0
2018-Jan-04 21:30N 21°15' E 110°26'0 0.0
2018-Jan-04 20:54N 21°15' E 110°26'0 0.0
2018-Jan-04 20:30N 21°15' E 110°26'0 0.0
2018-Jan-04 20:00N 21°15' E 110°26'0 0.0
2018-Jan-04 19:30N 21°15' E 110°26'0 0.0
2018-Jan-04 18:57N 21°15' E 110°26'0 0.0
2018-Jan-04 18:30N 21°15' E 110°26'0 0.1
2018-Jan-04 18:00N 21°15' E 110°26'0 0.1
2018-Jan-04 17:30N 21°15' E 110°26'0 0.0
2018-Jan-04 17:00N 21°15' E 110°26'0 0.0
2018-Jan-04 16:30N 21°15' E 110°26'0 0.0
2018-Jan-04 15:57N 21°15' E 110°26'0 0.0
2018-Jan-04 15:30N 21°15' E 110°26'0 0.0
2018-Jan-04 15:00N 21°15' E 110°26'0 0.0
2018-Jan-04 14:27N 21°15' E 110°26'0 0.0
2018-Jan-04 14:00N 21°15' E 110°26'0 0.0
2018-Jan-04 13:30N 21°15' E 110°26'0 0.0
2018-Jan-04 13:00N 21°15' E 110°26'0 0.0
2018-Jan-04 12:30N 21°15' E 110°26'0 0.0
2018-Jan-04 12:00N 21°15' E 110°26'0 0.0
2018-Jan-04 11:30N 21°15' E 110°26'0 0.0
2018-Jan-04 11:00N 21°15' E 110°26'0 0.0
2018-Jan-04 10:30N 21°15' E 110°26'0 0.0
2018-Jan-04 09:57N 21°15' E 110°26'0 0.0
2018-Jan-04 09:30N 21°15' E 110°26'0 0.0
2018-Jan-04 09:00N 21°15' E 110°26'0 0.0
2018-Jan-04 08:30N 21°15' E 110°26'0 0.1
2018-Jan-04 07:54N 21°15' E 110°26'0 0.0
2018-Jan-04 07:30N 21°15' E 110°26'0 0.0
2018-Jan-04 07:00N 21°15' E 110°26'0 0.1
2018-Jan-04 06:30N 21°15' E 110°26'0 0.0
2018-Jan-04 06:00N 21°15' E 110°26'0 0.0
2018-Jan-04 05:30N 21°15' E 110°26'0 0.0
2018-Jan-04 05:00N 21°15' E 110°26'0 0.0
2018-Jan-04 04:30N 21°15' E 110°26'0 0.0
2018-Jan-04 04:00N 21°15' E 110°26'0 0.0
2018-Jan-04 03:27N 21°15' E 110°26'0 0.0
2018-Jan-04 03:00N 21°15' E 110°26'0 0.0
2018-Jan-04 02:30N 21°15' E 110°26'0 0.0
2018-Jan-04 02:00N 21°15' E 110°26'0 0.0
2018-Jan-04 01:30N 21°15' E 110°26'0 0.0
2018-Jan-04 01:00N 21°15' E 110°26'0 0.0
2018-Jan-04 00:30N 21°15' E 110°26'0 0.0
2018-Jan-04 00:00N 21°15' E 110°26'0 0.0
2018-Jan-03 23:27N 21°15' E 110°26'0 0.1
2018-Jan-03 23:00N 21°15' E 110°26'0 0.1
2018-Jan-03 22:30N 21°15' E 110°26'0 0.0
2018-Jan-03 22:00N 21°15' E 110°26'0 0.0
2018-Jan-03 21:30N 21°15' E 110°26'0 0.0
2018-Jan-03 21:00N 21°15' E 110°26'0 0.0
2018-Jan-03 20:30N 21°15' E 110°26'0 0.0
2018-Jan-03 20:00N 21°15' E 110°26'0 0.0
2018-Jan-03 19:30N 21°15' E 110°26'0 0.0
2018-Jan-03 19:00N 21°15' E 110°26'0 0.0
2018-Jan-03 18:30N 21°15' E 110°26'0 0.0
2018-Jan-03 18:00N 21°15' E 110°26'0 0.0
2018-Jan-03 17:30N 21°15' E 110°26'0 0.1
2018-Jan-03 17:00N 21°15' E 110°26'0 0.0
2018-Jan-03 16:27N 21°15' E 110°26'0 0.0
2018-Jan-03 15:57N 21°15' E 110°26'0 0.0
2018-Jan-03 15:18N 21°15' E 110°26'0 0.0
2018-Jan-03 14:57N 21°15' E 110°26'0 0.0
2018-Jan-03 14:30N 21°15' E 110°26'0 0.0
2018-Jan-03 14:00N 21°15' E 110°26'0 0.0
2018-Jan-03 13:30N 21°15' E 110°26'0 0.0
2018-Jan-03 13:00N 21°15' E 110°26'0 0.0
2018-Jan-03 12:30N 21°15' E 110°26'0 0.0
2018-Jan-03 11:54N 21°15' E 110°26'0 0.0
2018-Jan-03 11:30N 21°15' E 110°26'0 0.0
2018-Jan-03 11:00N 21°15' E 110°26'0 0.0
2018-Jan-03 10:30N 21°15' E 110°26'0 0.0
2018-Jan-03 10:00N 21°15' E 110°26'0 0.0
2018-Jan-03 09:30N 21°15' E 110°26'0 0.0
2018-Jan-03 09:00N 21°15' E 110°26'0 0.0
2018-Jan-03 08:18N 21°15' E 110°26'0 0.0
2018-Jan-03 08:00N 21°15' E 110°26'0 0.1
2018-Jan-03 07:24N 21°15' E 110°26'0 0.0
2018-Jan-03 07:00N 21°15' E 110°26'0 0.0
2018-Jan-03 06:30N 21°15' E 110°26'0 0.1
2018-Jan-03 06:00N 21°15' E 110°26'0 0.1
2018-Jan-03 05:27N 21°15' E 110°26'0 0.0
2018-Jan-03 04:57N 21°15' E 110°26'0 0.0
2018-Jan-03 04:24N 21°15' E 110°26'0 0.0
2018-Jan-03 04:00N 21°15' E 110°26'0 0.0
2018-Jan-03 03:27N 21°15' E 110°26'0 0.0
2018-Jan-03 03:00N 21°15' E 110°26'0 0.0
2018-Jan-03 02:30N 21°15' E 110°26'0 0.0
2018-Jan-03 02:00N 21°15' E 110°26'0 0.0
2018-Jan-03 01:30N 21°15' E 110°26'0 0.1
2018-Jan-03 01:00N 21°15' E 110°26'0 0.1
2018-Jan-03 00:30N 21°15' E 110°26'0 0.1
2018-Jan-03 00:00N 21°15' E 110°26'0 0.0
2018-Jan-02 23:30N 21°15' E 110°26'0 0.1
2018-Jan-02 22:57N 21°15' E 110°26'0 0.0
2018-Jan-02 22:30N 21°15' E 110°26'0 0.0
2018-Jan-02 21:51N 21°15' E 110°26'0 0.0
2018-Jan-02 21:21N 21°15' E 110°26'0 0.0
2018-Jan-02 21:00N 21°15' E 110°26'0 0.0
2018-Jan-02 20:30N 21°15' E 110°26'0 0.0
2018-Jan-02 20:00N 21°15' E 110°26'0 0.0
2018-Jan-02 19:30N 21°15' E 110°26'0 0.0
2018-Jan-02 18:54N 21°15' E 110°26'0 0.0
2018-Jan-02 18:30N 21°15' E 110°26'0 0.0
2018-Jan-02 18:00N 21°15' E 110°26'0 0.0
2018-Jan-02 17:30N 21°15' E 110°26'0 0.0
2018-Jan-02 17:00N 21°15' E 110°26'0 0.0
2018-Jan-02 16:27N 21°15' E 110°26'0 0.1
2018-Jan-02 16:00N 21°15' E 110°26'0 0.1
2018-Jan-02 15:30N 21°15' E 110°26'0 0.0
2018-Jan-02 14:54N 21°15' E 110°26'0 0.0
2018-Jan-02 14:30N 21°15' E 110°26'0 0.0
2018-Jan-02 14:00N 21°15' E 110°26'0 0.0
2018-Jan-02 13:30N 21°15' E 110°26'0 0.0
2018-Jan-02 12:57N 21°15' E 110°26'0 0.3
2018-Jan-02 12:30N 21°15' E 110°26'0 0.2
2018-Jan-02 12:00N 21°15' E 110°26'0 0.0
2018-Jan-02 11:30N 21°15' E 110°26'0 0.0
2018-Jan-02 10:57N 21°15' E 110°26'0 0.0
2018-Jan-02 10:30N 21°15' E 110°26'0 0.0
2018-Jan-02 09:57N 21°15' E 110°26'0 0.0
2018-Jan-02 09:27N 21°15' E 110°26'0 0.0
2018-Jan-02 08:27N 21°15' E 110°26'0 0.1
2018-Jan-02 07:59N 21°15' E 110°26'0 0.3
2018-Jan-02 07:30N 21°15' E 110°26'0 0.1
2018-Jan-02 07:00N 21°15' E 110°26'0 0.0
2018-Jan-02 06:30N 21°15' E 110°26'0 0.0
2018-Jan-02 05:57N 21°15' E 110°26'0 0.0
2018-Jan-02 05:30N 21°15' E 110°26'0 0.1
2018-Jan-02 04:30N 21°15' E 110°26'0 0.0
2018-Jan-02 04:00N 21°15' E 110°26'0 0.0
2018-Jan-02 03:30N 21°15' E 110°26'0 0.0
2018-Jan-02 03:00N 21°15' E 110°26'0 0.1
2018-Jan-02 02:24N 21°15' E 110°26'0 0.1
2018-Jan-02 01:57N 21°15' E 110°26'0 0.0
2018-Jan-02 01:30N 21°15' E 110°26'0 0.0
2018-Jan-02 01:00N 21°15' E 110°26'0 0.0
2018-Jan-02 00:30N 21°15' E 110°26'0 0.0
2018-Jan-01 23:57N 21°15' E 110°26'0 0.0
2018-Jan-01 23:27N 21°15' E 110°26'0 0.0
2018-Jan-01 23:00N 21°15' E 110°26'0 0.1
2018-Jan-01 22:30N 21°15' E 110°26'0 0.0
2018-Jan-01 22:00N 21°15' E 110°26'0 0.0
2018-Jan-01 21:30N 21°15' E 110°26'0 0.0
2018-Jan-01 21:00N 21°15' E 110°26'0 0.0
2018-Jan-01 20:30N 21°15' E 110°26'0 0.0
2018-Jan-01 20:00N 21°15' E 110°26'0 0.0
2018-Jan-01 19:30N 21°15' E 110°26'0 0.0
2018-Jan-01 19:00N 21°15' E 110°26'0 0.0
2018-Jan-01 18:30N 21°15' E 110°26'0 0.0
2018-Jan-01 18:00N 21°15' E 110°26'0 0.0
2018-Jan-01 17:30N 21°15' E 110°26'0 0.0
2018-Jan-01 15:00N 21°15' E 110°26'0 0.0
2018-Jan-01 14:30N 21°15' E 110°26'0 0.0
2018-Jan-01 13:57N 21°15' E 110°26'0 0.0
2018-Jan-01 13:27N 21°15' E 110°26'0 0.0
2018-Jan-01 13:00N 21°15' E 110°26'0 0.0
2018-Jan-01 11:57N 21°15' E 110°26'0 0.1
2018-Jan-01 11:30N 21°15' E 110°26'0 0.1
2018-Jan-01 11:00N 21°15' E 110°26'0 0.0
2018-Jan-01 10:30N 21°15' E 110°26'0 0.0
2018-Jan-01 09:57N 21°15' E 110°26'0 0.0
2018-Jan-01 09:30N 21°15' E 110°26'0 0.0
2018-Jan-01 08:24N 21°15' E 110°26'0 0.0
2018-Jan-01 08:00N 21°15' E 110°26'0 0.0
2018-Jan-01 07:24N 21°15' E 110°26'0 0.1
2018-Jan-01 07:00N 21°15' E 110°26'0 0.1
2018-Jan-01 05:54N 21°15' E 110°26'0 0.0
2018-Jan-01 05:30N 21°15' E 110°26'0 0.0
2018-Jan-01 04:57N 21°15' E 110°26'0 0.1
2018-Jan-01 03:57N 21°15' E 110°26'0 0.0
2018-Jan-01 03:30N 21°15' E 110°26'0 0.0
2018-Jan-01 03:00N 21°15' E 110°26'0 0.0
2018-Jan-01 02:27N 21°15' E 110°26'0 0.0
2018-Jan-01 02:00N 21°15' E 110°26'0 0.0
2018-Jan-01 01:30N 21°15' E 110°26'0 0.1
2018-Jan-01 00:30N 21°15' E 110°26'0 0.0
2017-Dec-31 21:00N 21°15' E 110°26'0 0.0
2017-Dec-31 20:27N 21°15' E 110°26'0 0.0
2017-Dec-31 20:00N 21°15' E 110°26'0 0.0
2017-Dec-31 19:30N 21°15' E 110°26'0 0.0
2017-Dec-31 19:00N 21°15' E 110°26'0 0.0
2017-Dec-31 18:27N 21°15' E 110°26'0 0.0
2017-Dec-31 17:57N 21°15' E 110°26'0 0.0
2017-Dec-31 17:27N 21°15' E 110°26'0 0.0
2017-Dec-31 16:54N 21°15' E 110°26'0 0.0
2017-Dec-31 16:27N 21°15' E 110°26'0 0.0
2017-Dec-31 16:00N 21°15' E 110°26'0 0.0
2017-Dec-31 15:27N 21°15' E 110°26'0 0.0
2017-Dec-31 15:00N 21°15' E 110°26'0 0.1
2017-Dec-31 14:27N 21°15' E 110°26'0 0.0
2017-Dec-31 14:00N 21°15' E 110°26'0 0.0
2017-Dec-31 13:27N 21°15' E 110°26'0 0.0
2017-Dec-31 13:00N 21°15' E 110°26'0 0.0
2017-Dec-31 12:30N 21°15' E 110°26'0 0.0
2017-Dec-31 12:00N 21°15' E 110°26'0 0.0
2017-Dec-31 11:30N 21°15' E 110°26'0 0.0
2017-Dec-31 11:00N 21°15' E 110°26'0 0.0
2017-Dec-31 10:30N 21°15' E 110°26'0 0.0
2017-Dec-31 10:00N 21°15' E 110°26'0 0.0
2017-Dec-31 09:30N 21°15' E 110°26'0 0.0
2017-Dec-31 09:00N 21°15' E 110°26'0 0.0
2017-Dec-31 08:30N 21°15' E 110°26'0 0.0
2017-Dec-31 08:00N 21°15' E 110°26'0 0.1
2017-Dec-31 07:30N 21°15' E 110°26'0 0.0
2017-Dec-31 06:57N 21°15' E 110°26'0 0.0
2017-Dec-31 06:24N 21°15' E 110°26'0 0.0
2017-Dec-31 05:57N 21°15' E 110°26'0 0.0
2017-Dec-31 05:27N 21°15' E 110°26'0 0.0
2017-Dec-31 05:00N 21°15' E 110°26'0 0.0
2017-Dec-31 04:30N 21°15' E 110°26'0 0.0
2017-Dec-31 04:00N 21°15' E 110°26'0 0.0
2017-Dec-31 03:30N 21°15' E 110°26'0 0.0
2017-Dec-31 03:00N 21°15' E 110°26'0 0.0
2017-Dec-31 02:30N 21°15' E 110°26'0 0.0
2017-Dec-31 02:00N 21°15' E 110°26'0 0.1
2017-Dec-31 01:21N 21°15' E 110°26'0 0.2
2017-Dec-31 01:00N 21°15' E 110°26'0 0.1
2017-Dec-31 00:30N 21°15' E 110°26'0 0.0
2017-Dec-30 23:54N 21°15' E 110°26'0 0.0
2017-Dec-30 23:24N 21°15' E 110°26'0 0.0
2017-Dec-30 23:00N 21°15' E 110°26'0 0.0
2017-Dec-30 22:21N 21°15' E 110°26'0 0.2
2017-Dec-30 22:00N 21°15' E 110°26'0 0.0
2017-Dec-30 21:30N 21°15' E 110°26'0 0.0
2017-Dec-30 20:57N 21°15' E 110°26'0 0.0
2017-Dec-30 20:30N 21°15' E 110°26'0 0.0
2017-Dec-30 19:57N 21°15' E 110°26'0 0.0
2017-Dec-30 19:27N 21°15' E 110°26'0 0.0
2017-Dec-30 19:00N 21°15' E 110°26'0 0.0
2017-Dec-30 18:30N 21°15' E 110°26'0 0.0
2017-Dec-30 17:57N 21°15' E 110°26'0 0.0
2017-Dec-30 17:30N 21°15' E 110°26'0 0.0
2017-Dec-30 17:00N 21°15' E 110°26'0 0.0
2017-Dec-30 16:30N 21°15' E 110°26'0 0.0
2017-Dec-30 16:00N 21°15' E 110°26'0 0.0
2017-Dec-30 15:30N 21°15' E 110°26'0 0.0
2017-Dec-30 15:00N 21°15' E 110°26'0 0.0
2017-Dec-30 14:30N 21°15' E 110°26'0 0.0
2017-Dec-30 13:57N 21°15' E 110°26'0 0.0
2017-Dec-30 13:30N 21°15' E 110°26'0 0.0
2017-Dec-30 13:00N 21°15' E 110°26'0 0.1
2017-Dec-30 12:30N 21°15' E 110°26'0 0.1
2017-Dec-30 11:54N 21°15' E 110°26'0 0.0
2017-Dec-30 11:30N 21°15' E 110°26'0 0.0
2017-Dec-30 11:00N 21°15' E 110°26'0 0.0
2017-Dec-30 10:30N 21°15' E 110°26'0 0.0
2017-Dec-30 10:00N 21°15' E 110°26'0 0.1
2017-Dec-30 09:30N 21°15' E 110°26'0 0.1
2017-Dec-30 09:00N 21°15' E 110°26'0 0.0
2017-Dec-30 08:30N 21°15' E 110°26'0 0.1
2017-Dec-30 08:00N 21°15' E 110°26'0 0.1
2017-Dec-30 07:24N 21°15' E 110°26'0 0.0
2017-Dec-30 07:00N 21°15' E 110°26'0 0.0
2017-Dec-30 06:30N 21°15' E 110°26'0 0.1
2017-Dec-30 05:54N 21°15' E 110°26'0 0.0
2017-Dec-30 05:30N 21°15' E 110°26'0 0.0
2017-Dec-30 05:00N 21°15' E 110°26'0 0.0
2017-Dec-30 04:30N 21°15' E 110°26'0 0.0
2017-Dec-30 04:00N 21°15' E 110°26'0 0.0
2017-Dec-30 03:15N 21°15' E 110°26'0 0.0
2017-Dec-30 02:57N 21°15' E 110°26'0 0.0
2017-Dec-30 02:27N 21°15' E 110°26'0 0.0
2017-Dec-30 02:00N 21°15' E 110°26'0 0.1
2017-Dec-30 01:21N 21°15' E 110°26'0 0.0
2017-Dec-30 00:57N 21°15' E 110°26'0 0.0
2017-Dec-30 00:30N 21°15' E 110°26'0 0.1
2017-Dec-30 00:00N 21°15' E 110°26'0 0.1
2017-Dec-29 23:30N 21°15' E 110°26'0 0.0
2017-Dec-29 23:00N 21°15' E 110°26'0 0.0
2017-Dec-29 22:27N 21°15' E 110°26'0 0.0
2017-Dec-29 22:00N 21°15' E 110°26'0 0.0
2017-Dec-29 21:27N 21°15' E 110°26'0 0.0
2017-Dec-29 20:57N 21°15' E 110°26'0 0.0
2017-Dec-29 20:27N 21°15' E 110°26'0 0.0
2017-Dec-29 20:00N 21°15' E 110°26'0 0.0
2017-Dec-29 19:30N 21°15' E 110°26'0 0.1
2017-Dec-29 18:57N 21°15' E 110°26'0 0.0
2017-Dec-29 18:30N 21°15' E 110°26'0 0.0
2017-Dec-29 17:57N 21°15' E 110°26'0 0.0
2017-Dec-29 17:30N 21°15' E 110°26'0 0.0
2017-Dec-29 17:00N 21°15' E 110°26'0 0.0
2017-Dec-29 16:30N 21°15' E 110°26'0 0.0
2017-Dec-29 16:00N 21°15' E 110°26'0 0.0
2017-Dec-29 15:27N 21°15' E 110°26'0 0.0
2017-Dec-29 15:00N 21°15' E 110°26'0 0.0
2017-Dec-29 14:30N 21°15' E 110°26'0 0.0
2017-Dec-29 14:00N 21°15' E 110°26'0 0.0
2017-Dec-29 13:30N 21°15' E 110°26'0 0.1
2017-Dec-29 13:00N 21°15' E 110°26'0 0.1
2017-Dec-29 12:30N 21°15' E 110°26'0 0.0
2017-Dec-29 12:00N 21°15' E 110°26'0 0.1
2017-Dec-29 11:27N 21°15' E 110°26'0 0.0
2017-Dec-29 10:57N 21°15' E 110°26'0 0.0
2017-Dec-29 10:30N 21°15' E 110°26'0 0.1
2017-Dec-29 09:57N 21°15' E 110°26'0 0.0
2017-Dec-29 09:30N 21°15' E 110°26'0 0.0
2017-Dec-29 09:00N 21°15' E 110°26'0 0.0
2017-Dec-29 08:30N 21°15' E 110°26'0 0.0
2017-Dec-29 08:00N 21°15' E 110°26'0 0.1
2017-Dec-29 07:30N 21°15' E 110°26'0 0.1
2017-Dec-29 06:51N 21°15' E 110°26'0 0.0
2017-Dec-29 06:24N 21°15' E 110°26'0 0.0
2017-Dec-29 06:00N 21°15' E 110°26'0 0.0
2017-Dec-29 05:30N 21°15' E 110°26'0 0.1
2017-Dec-29 04:57N 21°15' E 110°26'0 0.1
2017-Dec-29 04:27N 21°15' E 110°26'0 0.0
2017-Dec-29 04:00N 21°15' E 110°26'0 0.0
2017-Dec-29 03:24N 21°15' E 110°26'0 0.0
2017-Dec-29 02:54N 21°15' E 110°26'0 0.0
2017-Dec-29 02:30N 21°15' E 110°26'0 0.0
2017-Dec-29 01:54N 21°15' E 110°26'0 0.0
2017-Dec-29 01:21N 21°15' E 110°26'0 0.0
2017-Dec-29 01:00N 21°15' E 110°26'0 0.0
2017-Dec-29 00:30N 21°15' E 110°26'0 0.0
2017-Dec-28 23:54N 21°15' E 110°26'0 0.0
2017-Dec-28 23:30N 21°15' E 110°26'0 0.0
2017-Dec-28 23:00N 21°15' E 110°26'0 0.0
2017-Dec-28 22:27N 21°15' E 110°26'0 0.0
2017-Dec-28 22:00N 21°15' E 110°26'0 0.1
2017-Dec-28 21:30N 21°15' E 110°26'0 0.0
2017-Dec-28 21:00N 21°15' E 110°26'0 0.0
2017-Dec-28 20:30N 21°15' E 110°26'0 0.0
2017-Dec-28 20:00N 21°15' E 110°26'0 0.1
2017-Dec-28 19:30N 21°15' E 110°26'0 0.0
2017-Dec-28 19:00N 21°15' E 110°26'0 0.0
2017-Dec-28 18:30N 21°15' E 110°26'0 0.0
2017-Dec-28 18:00N 21°15' E 110°26'0 0.0
2017-Dec-28 17:30N 21°15' E 110°26'0 0.0
2017-Dec-28 17:00N 21°15' E 110°26'0 0.0
2017-Dec-28 16:27N 21°15' E 110°26'0 0.0
2017-Dec-28 15:54N 21°15' E 110°26'0 0.0
2017-Dec-28 15:30N 21°15' E 110°26'0 0.0
2017-Dec-28 15:00N 21°15' E 110°26'0 0.0
2017-Dec-28 14:30N 21°15' E 110°26'0 0.0
2017-Dec-28 13:57N 21°15' E 110°26'0 0.0
2017-Dec-28 13:30N 21°15' E 110°26'0 0.0
2017-Dec-28 12:57N 21°15' E 110°26'0 0.0
2017-Dec-28 12:30N 21°15' E 110°26'0 0.0
2017-Dec-28 12:00N 21°15' E 110°26'0 0.1
2017-Dec-28 11:27N 21°15' E 110°26'0 0.0
2017-Dec-28 11:00N 21°15' E 110°26'0 0.0
2017-Dec-28 10:27N 21°15' E 110°26'0 0.1
2017-Dec-28 09:57N 21°15' E 110°26'0 0.1
2017-Dec-28 09:30N 21°15' E 110°26'0 0.0
2017-Dec-28 08:57N 21°15' E 110°26'0 0.0
2017-Dec-28 08:30N 21°15' E 110°26'0 0.0
2017-Dec-28 08:00N 21°15' E 110°26'0 0.0
2017-Dec-28 07:30N 21°15' E 110°26'0 0.0
2017-Dec-28 06:57N 21°15' E 110°26'0 0.1
2017-Dec-28 06:24N 21°15' E 110°26'0 0.1
2017-Dec-28 05:57N 21°15' E 110°26'0 0.0
2017-Dec-28 05:27N 21°15' E 110°26'0 0.0
2017-Dec-28 05:00N 21°15' E 110°26'0 0.0
2017-Dec-28 04:30N 21°15' E 110°26'0 0.0
2017-Dec-28 04:00N 21°15' E 110°26'0 0.0
2017-Dec-28 03:30N 21°15' E 110°26'0 0.0
2017-Dec-28 03:00N 21°15' E 110°26'0 0.0
2017-Dec-28 02:27N 21°15' E 110°26'0 0.0
2017-Dec-28 02:00N 21°15' E 110°26'0 0.0
2017-Dec-28 01:30N 21°15' E 110°26'0 0.0
2017-Dec-28 01:00N 21°15' E 110°26'0 0.0
2017-Dec-28 00:30N 21°15' E 110°26'0 0.0
2017-Dec-28 00:00N 21°15' E 110°26'0 0.0
2017-Dec-27 23:27N 21°15' E 110°26'0 0.0
2017-Dec-27 23:00N 21°15' E 110°26'0 0.0
2017-Dec-27 22:30N 21°15' E 110°26'0 0.0
2017-Dec-27 21:57N 21°15' E 110°26'0 0.0
2017-Dec-27 21:30N 21°15' E 110°26'0 0.1
2017-Dec-27 21:00N 21°15' E 110°26'0 0.0
2017-Dec-27 20:24N 21°15' E 110°26'0 0.0
2017-Dec-27 20:00N 21°15' E 110°26'0 0.0
2017-Dec-27 19:30N 21°15' E 110°26'0 0.0
2017-Dec-27 18:57N 21°15' E 110°26'0 0.1
2017-Dec-27 18:24N 21°15' E 110°26'0 0.0
2017-Dec-27 17:57N 21°15' E 110°26'0 0.0
2017-Dec-27 17:30N 21°15' E 110°26'0 0.0
2017-Dec-27 17:00N 21°15' E 110°26'0 0.0
2017-Dec-27 16:30N 21°15' E 110°26'0 0.0
2017-Dec-27 16:00N 21°15' E 110°26'0 0.0
2017-Dec-27 15:30N 21°15' E 110°26'0 0.0
2017-Dec-27 14:57N 21°15' E 110°26'0 0.1
2017-Dec-27 14:30N 21°15' E 110°26'0 0.0
2017-Dec-27 14:00N 21°15' E 110°26'0 0.0
2017-Dec-27 13:30N 21°15' E 110°26'0 0.0
2017-Dec-27 12:57N 21°15' E 110°26'0 0.0
2017-Dec-27 12:30N 21°15' E 110°26'0 0.0
2017-Dec-27 11:57N 21°15' E 110°26'0 0.0
2017-Dec-27 11:30N 21°15' E 110°26'0 0.1
2017-Dec-27 11:00N 21°15' E 110°26'0 0.1
2017-Dec-27 10:27N 21°15' E 110°26'0 0.0
2017-Dec-27 10:00N 21°15' E 110°26'0 0.0
2017-Dec-27 09:30N 21°15' E 110°26'0 0.1
2017-Dec-27 09:00N 21°15' E 110°26'0 0.1
2017-Dec-27 08:30N 21°15' E 110°26'0 0.0
2017-Dec-27 07:57N 21°15' E 110°26'0 0.0
2017-Dec-27 07:30N 21°15' E 110°26'0 0.0
2017-Dec-27 07:00N 21°15' E 110°26'0 0.0
2017-Dec-27 06:24N 21°15' E 110°26'0 0.0
2017-Dec-27 05:51N 21°15' E 110°26'0 0.0
2017-Dec-27 05:27N 21°15' E 110°26'0 0.0
2017-Dec-27 04:57N 21°15' E 110°26'0 0.0
2017-Dec-27 04:30N 21°15' E 110°26'0 0.0
2017-Dec-27 04:00N 21°15' E 110°26'0 0.0
2017-Dec-27 03:30N 21°15' E 110°26'0 0.0
2017-Dec-27 02:57N 21°15' E 110°26'0 0.0
2017-Dec-27 02:30N 21°15' E 110°26'0 0.1
2017-Dec-27 02:00N 21°15' E 110°26'0 0.0
2017-Dec-27 01:27N 21°15' E 110°26'0 0.0
2017-Dec-27 01:00N 21°15' E 110°26'0 0.0
2017-Dec-27 00:30N 21°15' E 110°26'0 0.0
2017-Dec-27 00:00N 21°15' E 110°26'0 0.0
2017-Dec-26 23:30N 21°15' E 110°26'0 0.0
2017-Dec-26 23:00N 21°15' E 110°26'0 0.0
2017-Dec-26 22:30N 21°15' E 110°26'0 0.0
2017-Dec-26 22:00N 21°15' E 110°26'0 0.0
2017-Dec-26 21:30N 21°15' E 110°26'0 0.1
2017-Dec-26 21:00N 21°15' E 110°26'0 0.0
2017-Dec-26 20:30N 21°15' E 110°26'0 0.0
2017-Dec-26 19:57N 21°15' E 110°26'0 0.0
2017-Dec-26 19:30N 21°15' E 110°26'0 0.0
2017-Dec-26 19:00N 21°15' E 110°26'0 0.0
2017-Dec-26 18:30N 21°15' E 110°26'  

Dump ship's entire track history